Time;durP1;ratioP1;P1;durP2;ratioP2;P2;SDS_P1;SDS_P2;PMS_P1;PMS_P2;Temp;Humidity;BMP_temperature;BMP_pressure;BME280_temperature;BME280_humidity;BME280_pressure;Samples;Min_cycle;Max_cycle;Signal;HPM_P1;HPM_P2
2021/03/27 00:01:26;;;;;;;13.57;8.13;;;;;;;10.30;80.07;100195.12;625779;228;25011;-76
2021/03/27 00:03:55;;;;;;;14.00;9.03;;;;;;;10.83;78.10;100183.98;621102;225;34264;-76
2021/03/27 00:06:23;;;;;;;11.83;8.40;;;;;;;10.42;79.27;100190.08;619852;229;24932;-78
2021/03/27 00:08:51;;;;;;;12.60;8.50;;;;;;;10.82;77.63;100174.55;620125;229;32759;-77
2021/03/27 00:11:19;;;;;;;10.60;8.33;;;;;;;10.69;77.83;100174.91;629534;226;25065;-76
2021/03/27 00:13:52;;;;;;;12.40;8.50;;;;;;;10.65;78.69;100174.88;629166;225;24882;-76
2021/03/27 00:16:20;;;;;;;14.37;7.90;;;;;;;10.73;78.02;100173.67;627557;228;23814;-75
2021/03/27 00:18:50;;;;;;;11.77;7.53;;;;;;;10.77;77.59;100179.39;638436;223;24774;-75
2021/03/27 00:21:19;;;;;;;11.10;7.80;;;;;;;10.75;77.91;100170.44;625926;227;26949;-76
2021/03/27 00:23:51;;;;;;;9.93;7.60;;;;;;;10.87;77.17;100176.25;639791;224;24748;-76
2021/03/27 00:26:20;;;;;;;10.80;7.67;;;;;;;10.82;78.33;100177.16;628832;228;24850;-75
2021/03/27 00:28:48;;;;;;;11.70;6.60;;;;;;;10.84;78.12;100167.41;628484;228;24846;-76
2021/03/27 00:31:16;;;;;;;12.87;7.10;;;;;;;10.98;77.26;100165.63;629136;228;24834;-76
2021/03/27 00:33:44;;;;;;;11.63;7.17;;;;;;;11.03;77.68;100153.45;626513;225;24842;-76
2021/03/27 00:36:12;;;;;;;10.17;7.20;;;;;;;11.06;76.89;100147.46;642003;223;24946;-77
2021/03/27 00:38:39;;;;;;;11.07;6.93;;;;;;;11.14;76.69;100156.66;639127;224;25106;-77
2021/03/27 00:41:10;;;;;;;10.20;6.70;;;;;;;11.24;76.12;100146.95;634774;224;41792;-75
2021/03/27 00:43:39;;;;;;;11.60;7.17;;;;;;;11.15;77.35;100150.96;629571;225;24929;-76
2021/03/27 00:46:06;;;;;;;9.60;7.33;;;;;;;10.96;77.42;100146.23;627288;228;23864;-75
2021/03/27 00:48:35;;;;;;;10.10;7.53;;;;;;;11.10;76.70;100154.48;626580;229;24803;-76
2021/03/27 00:51:02;;;;;;;9.67;7.07;;;;;;;11.09;77.44;100154.14;629524;228;24852;-76
2021/03/27 00:53:32;;;;;;;15.00;6.20;;;;;;;11.04;78.02;100154.61;627443;225;24935;-76
2021/03/27 00:56:00;;;;;;;10.00;6.83;;;;;;;11.01;79.75;100162.72;638249;224;24816;-76
2021/03/27 00:58:28;;;;;;;9.10;7.27;;;;;;;10.90;81.43;100178.55;633238;225;24835;-76
2021/03/27 01:00:58;;;;;;;11.03;7.50;;;;;;;10.53;83.78;100198.95;631042;225;23823;-75
2021/03/27 01:03:28;;;;;;;10.80;7.30;;;;;;;10.65;83.87;100191.78;617374;226;33481;-76
2021/03/27 01:05:56;;;;;;;9.70;7.50;;;;;;;10.78;83.80;100188.34;630601;223;32631;-76
2021/03/27 01:08:24;;;;;;;8.80;6.90;;;;;;;10.56;85.60;100198.69;632640;226;23693;-76
2021/03/27 01:10:55;;;;;;;10.17;6.83;;;;;;;10.54;86.04;100187.59;635842;225;24834;-76
2021/03/27 01:13:23;;;;;;;11.70;7.90;;;;;;;10.64;85.25;100183.64;637072;225;24764;-77
2021/03/27 01:15:51;;;;;;;10.00;7.10;;;;;;;10.59;85.97;100181.48;632771;225;24752;-77
2021/03/27 01:18:19;;;;;;;8.60;7.00;;;;;;;10.78;85.53;100185.74;627278;228;24871;-76
2021/03/27 01:20:47;;;;;;;8.10;6.60;;;;;;;10.61;86.87;100186.06;642753;224;23815;-75
2021/03/27 01:23:15;;;;;;;10.80;7.50;;;;;;;10.57;87.53;100193.00;616497;229;24837;-76
2021/03/27 01:25:43;;;;;;;7.43;6.07;;;;;;;10.69;87.66;100192.63;626254;229;25050;-76
2021/03/27 01:28:11;;;;;;;10.90;7.00;;;;;;;11.10;86.54;100190.44;634405;222;43178;-77
2021/03/27 01:30:40;;;;;;;7.70;6.60;;;;;;;10.73;88.74;100191.06;638658;224;23829;-76
2021/03/27 01:33:14;;;;;;;10.60;6.70;;;;;;;10.63;89.08;100192.41;627659;225;26027;-75
2021/03/27 01:35:42;;;;;;;10.97;6.30;;;;;;;10.70;89.81;100185.67;626516;229;24838;-75
2021/03/27 01:38:10;;;;;;;7.63;5.80;;;;;;;10.58;89.96;100194.16;626563;227;24798;-76
2021/03/27 01:40:40;;;;;;;9.87;5.80;;;;;;;10.65;90.51;100184.80;633979;225;24840;-76
2021/03/27 01:43:15;;;;;;;8.60;5.80;;;;;;;10.67;89.97;100179.44;633928;224;24851;-76
2021/03/27 01:45:53;;;;;;;8.50;5.60;;;;;;;10.65;89.82;100184.80;626595;229;24815;-75
2021/03/27 01:48:22;;;;;;;6.13;5.03;;;;;;;10.68;90.45;100188.39;638726;223;24817;-75
2021/03/27 01:50:50;;;;;;;8.30;6.10;;;;;;;10.74;90.42;100177.91;634494;224;25058;-76
2021/03/27 01:53:23;;;;;;;10.33;6.10;;;;;;;11.03;89.65;100180.78;621074;229;32703;-77
2021/03/27 01:55:54;;;;;;;8.73;5.43;;;;;;;10.78;90.20;100178.42;622102;229;24786;-75
2021/03/27 01:58:23;;;;;;;5.60;5.10;;;;;;;10.81;90.01;100162.52;637789;224;24854;-75
2021/03/27 02:00:51;;;;;;;8.40;6.10;;;;;;;10.86;89.72;100159.00;620867;229;25078;-76
2021/03/27 02:03:20;;;;;;;7.30;5.03;;;;;;;11.06;89.26;100152.66;618998;226;32674;-75
2021/03/27 02:05:48;;;;;;;6.43;4.90;;;;;;;10.95;89.85;100171.92;628549;228;23695;-76
2021/03/27 02:08:17;;;;;;;6.33;4.60;;;;;;;10.83;89.78;100163.17;641560;224;23819;-77
2021/03/27 02:10:45;;;;;;;4.47;4.00;;;;;;;10.92;89.56;100175.31;641552;224;24824;-75
2021/03/27 02:13:16;;;;;;;4.73;4.20;;;;;;;10.99;90.17;100175.88;627140;225;24793;-76
2021/03/27 02:15:48;;;;;;;4.17;3.70;;;;;;;11.18;88.88;100187.91;637107;223;24813;-76
2021/03/27 02:18:19;;;;;;;5.60;4.13;;;;;;;11.06;90.28;100205.20;623386;229;24885;-76
2021/03/27 02:21:09;;;;;;;5.27;4.37;;;;;;;11.16;90.20;100214.58;626355;228;24810;-76
2021/03/27 02:23:41;;;;;;;10.53;4.50;;;;;;;10.90;91.49;100248.80;627833;225;24852;-75
2021/03/27 02:26:16;;;;;;;4.70;4.20;;;;;;;10.60;95.05;100263.75;624570;229;24824;-76
2021/03/27 02:28:57;;;;;;;4.53;3.97;;;;;;;10.54;94.71;100302.49;626141;228;26089;-75
2021/03/27 02:31:26;;;;;;;10.03;5.87;;;;;;;10.31;95.67;100295.05;625011;229;24891;-76
2021/03/27 02:33:54;;;;;;;3.83;3.27;;;;;;;10.37;90.36;100277.58;633025;224;24888;-75
2021/03/27 02:36:23;;;;;;;6.20;3.00;;;;;;;10.38;86.69;100271.90;627246;229;23874;-75
2021/03/27 02:38:54;;;;;;;3.03;2.53;;;;;;;10.30;86.31;100273.11;633995;224;24784;-75
2021/03/27 02:41:29;;;;;;;3.10;2.10;;;;;;;10.25;84.70;100276.11;629731;227;24848;-75
2021/03/27 02:43:57;;;;;;;3.20;2.00;;;;;;;10.18;86.11;100275.02;634008;222;32883;-76
2021/03/27 02:46:27;;;;;;;2.00;1.80;;;;;;;10.12;85.76;100289.38;641710;222;29019;-76
2021/03/27 02:48:55;;;;;;;1.93;1.67;;;;;;;10.04;85.19;100278.88;639062;223;24845;-75
2021/03/27 02:51:24;;;;;;;2.47;2.27;;;;;;;9.98;86.12;100288.52;634272;224;24788;-75
2021/03/27 02:53:59;;;;;;;4.27;1.83;;;;;;;9.91;86.55;100306.94;633718;225;28009;-76
2021/03/27 02:56:29;;;;;;;2.17;1.93;;;;;;;9.87;86.18;100309.47;626563;229;23823;-75
2021/03/27 02:59:09;;;;;;;2.90;1.50;;;;;;;9.83;85.77;100311.98;639218;221;24722;-77
2021/03/27 03:01:37;;;;;;;1.40;1.30;;;;;;;9.78;84.91;100311.11;626000;229;24799;-75
2021/03/27 03:04:08;;;;;;;1.40;1.30;;;;;;;9.71;84.73;100323.02;626214;226;24847;-75
2021/03/27 03:06:35;;;;;;;2.95;1.40;;;;;;;9.64;84.43;100334.08;631536;224;32674;-75
2021/03/27 03:09:07;;;;;;;2.30;1.67;;;;;;;9.53;84.53;100344.92;625570;229;23676;-75
2021/03/27 03:11:35;;;;;;;1.63;1.53;;;;;;;9.34;84.32;100342.79;628018;225;24805;-75
2021/03/27 03:14:03;;;;;;;1.17;1.07;;;;;;;9.16;84.70;100347.81;636406;225;24822;-75
2021/03/27 03:16:31;;;;;;;1.60;1.17;;;;;;;9.15;82.83;100342.28;637638;225;25052;-75
2021/03/27 03:19:00;;;;;;;0.90;0.80;;;;;;;9.08;82.51;100351.53;630546;225;32512;-75
2021/03/27 03:21:28;;;;;;;1.20;1.00;;;;;;;8.90;82.84;100376.80;624882;226;23683;-75
2021/03/27 03:23:59;;;;;;;2.60;0.83;;;;;;;8.89;82.53;100371.27;636898;225;24735;-75
2021/03/27 03:26:31;;;;;;;1.17;0.67;;;;;;;8.78;81.72;100392.09;637741;223;24761;-75
2021/03/27 03:29:01;;;;;;;0.77;0.70;;;;;;;8.73;81.31;100399.45;629601;227;24808;-75
2021/03/27 03:31:39;;;;;;;0.83;0.63;;;;;;;8.67;81.98;100394.77;626299;228;24836;-74
2021/03/27 03:34:14;;;;;;;1.20;0.70;;;;;;;8.63;81.73;100394.20;639784;220;24775;-74
2021/03/27 03:36:46;;;;;;;2.30;0.80;;;;;;;8.57;81.87;100389.98;639137;224;24784;-75
2021/03/27 03:39:20;;;;;;;0.90;0.70;;;;;;;8.50;82.09;100408.31;639076;223;24831;-75
2021/03/27 03:41:51;;;;;;;0.60;0.60;;;;;;;8.50;82.52;100427.28;636498;223;32851;-75
2021/03/27 03:44:23;;;;;;;0.80;0.60;;;;;;;8.54;81.75;100451.17;633252;222;32593;-76
2021/03/27 03:46:55;;;;;;;1.20;0.80;;;;;;;8.49;83.23;100464.52;625705;229;23697;-76
2021/03/27 03:49:30;;;;;;;0.70;0.60;;;;;;;8.46;83.89;100484.69;630765;223;32792;-76
2021/03/27 03:52:05;;;;;;;2.70;0.90;;;;;;;8.48;84.24;100487.97;635189;225;23714;-75
2021/03/27 03:54:35;;;;;;;0.70;0.70;;;;;;;8.47;85.16;100514.36;634890;224;24820;-75
2021/03/27 03:57:04;;;;;;;2.80;1.17;;;;;;;8.32;86.58;100524.17;635846;224;25918;-75
2021/03/27 03:59:36;;;;;;;0.90;0.90;;;;;;;8.19;87.26;100544.70;626612;229;24870;-75
2021/03/27 04:02:04;;;;;;;1.40;0.90;;;;;;;8.14;86.66;100533.38;622931;225;32732;-75
2021/03/27 04:04:32;;;;;;;0.87;0.87;;;;;;;8.04;85.65;100534.61;628377;228;23717;-75
2021/03/27 04:07:00;;;;;;;1.00;1.00;;;;;;;7.96;87.29;100560.74;624646;229;24849;-75
2021/03/27 04:09:29;;;;;;;2.03;1.10;;;;;;;7.82;86.78;100575.23;642033;223;25072;-75
2021/03/27 04:12:03;;;;;;;0.80;0.80;;;;;;;7.77;86.03;100567.01;627500;229;24810;-75
2021/03/27 04:14:40;;;;;;;1.60;1.20;;;;;;;7.64;86.15;100566.65;637652;225;24729;-75
2021/03/27 04:17:09;;;;;;;2.30;0.90;;;;;;;7.60;85.96;100581.22;626106;228;24914;-75
2021/03/27 04:19:38;;;;;;;0.83;0.83;;;;;;;7.54;86.13;100599.81;627682;229;27987;-75
2021/03/27 04:22:09;;;;;;;0.93;0.60;;;;;;;7.38;86.82;100608.73;638380;225;26926;-76
2021/03/27 04:24:40;;;;;;;0.60;0.60;;;;;;;7.35;86.40;100625.79;628218;228;26996;-75
2021/03/27 04:27:09;;;;;;;0.70;0.70;;;;;;;7.26;86.93;100636.80;628255;228;25908;-75
2021/03/27 04:29:38;;;;;;;0.60;0.60;;;;;;;7.17;87.78;100645.70;637468;224;24793;-75
2021/03/27 04:32:28;;;;;;;0.70;0.67;;;;;;;6.97;88.54;100662.21;639491;222;24761;-75
2021/03/27 04:34:58;;;;;;;0.50;0.50;;;;;;;6.84;90.14;100671.78;632111;224;24827;-76
2021/03/27 04:37:27;;;;;;;0.60;0.60;;;;;;;6.66;90.00;100682.15;641666;224;24754;-75
2021/03/27 04:39:55;;;;;;;0.50;0.50;;;;;;;6.52;93.30;100696.86;639116;224;24803;-76
2021/03/27 04:42:23;;;;;;;0.50;0.50;;;;;;;6.53;93.30;100725.64;625611;226;24773;-76
2021/03/27 04:44:53;;;;;;;0.60;0.50;;;;;;;6.50;92.33;100719.88;632321;223;32731;-76
2021/03/27 04:47:21;;;;;;;1.00;0.50;;;;;;;6.58;92.99;100723.20;629605;225;32438;-76
2021/03/27 04:49:52;;;;;;;1.70;0.63;;;;;;;6.47;93.34;100748.02;629124;228;24839;-76
2021/03/27 04:52:21;;;;;;;0.50;0.50;;;;;;;6.42;93.84;100753.15;625878;229;24787;-75
2021/03/27 04:54:52;;;;;;;1.00;0.80;;;;;;;6.46;93.38;100754.11;625970;229;24770;-75
2021/03/27 04:57:22;;;;;;;0.70;0.70;;;;;;;6.47;91.96;100757.52;625553;228;24779;-76
2021/03/27 04:59:55;;;;;;;1.47;0.70;;;;;;;6.45;91.98;100771.84;634735;222;24717;-76
2021/03/27 05:02:24;;;;;;;0.60;0.60;;;;;;;6.48;90.66;100776.82;626372;226;24845;-75
2021/03/27 05:04:55;;;;;;;0.90;0.90;;;;;;;6.52;91.58;100782.13;639550;223;24771;-76
2021/03/27 05:07:24;;;;;;;1.17;0.70;;;;;;;6.72;90.42;100783.80;643035;223;24782;-76
2021/03/27 05:09:52;;;;;;;1.33;0.90;;;;;;;6.71;89.41;100789.91;634749;224;24772;-76
2021/03/27 05:12:21;;;;;;;1.17;0.70;;;;;;;6.76;89.96;100799.48;642783;221;24788;-75
2021/03/27 05:15:01;;;;;;;0.80;0.80;;;;;;;6.79;89.52;100803.13;640169;224;27955;-75
2021/03/27 05:17:36;;;;;;;2.30;0.80;;;;;;;6.87;89.29;100803.88;637262;224;25042;-75
2021/03/27 05:20:05;;;;;;;2.43;0.90;;;;;;;6.84;89.47;100810.92;638926;224;24824;-76
2021/03/27 05:22:37;;;;;;;1.20;0.80;;;;;;;6.86;88.82;100804.34;639875;221;24793;-75
2021/03/27 05:25:16;;;;;;;1.83;0.87;;;;;;;6.81;88.15;100811.61;618228;229;24812;-75
2021/03/27 05:27:45;;;;;;;1.13;0.80;;;;;;;6.88;88.63;100821.05;624281;229;24823;-75
2021/03/27 05:30:20;;;;;;;2.10;1.03;;;;;;;6.92;88.21;100832.84;637158;225;24756;-75
2021/03/27 05:32:51;;;;;;;1.47;0.83;;;;;;;6.91;87.53;100830.73;627299;225;25959;-76
2021/03/27 05:35:25;;;;;;;0.77;0.73;;;;;;;6.90;87.52;100841.15;639811;223;24785;-75
2021/03/27 05:37:55;;;;;;;1.27;0.80;;;;;;;6.90;86.93;100834.25;621541;229;24829;-75
2021/03/27 05:41:03;;;;;;;1.23;0.90;;;;;;;6.98;85.37;100835.00;628262;228;24825;-75
2021/03/27 05:43:41;;;;;;;1.67;0.80;;;;;;;7.11;84.86;100848.73;626115;224;24855;-75
2021/03/27 05:46:40;;;;;;;1.63;1.00;;;;;;;6.93;85.89;100865.06;623993;229;24880;-74
2021/03/27 05:49:18;;;;;;;1.63;1.00;;;;;;;6.71;86.60;100857.11;625695;229;24786;-75
2021/03/27 05:52:15;;;;;;;0.80;0.80;;;;;;;6.69;87.72;100873.19;641157;223;24802;-75
2021/03/27 05:54:49;;;;;;;1.40;0.90;;;;;;;6.77;87.67;100873.51;635811;223;24765;-75
2021/03/27 05:57:24;;;;;;;1.73;0.87;;;;;;;6.90;87.86;100873.03;638055;224;24788;-76
2021/03/27 06:00:24;;;;;;;5.27;1.50;;;;;;;6.92;86.39;100870.34;638018;224;24818;-75
2021/03/27 06:03:01;;;;;;;3.27;1.20;;;;;;;6.88;87.23;100872.75;635621;221;30299;-75
2021/03/27 06:05:35;;;;;;;2.20;1.00;;;;;;;6.86;87.34;100878.03;638274;224;24835;-75
2021/03/27 06:08:08;;;;;;;2.03;1.20;;;;;;;6.89;86.55;100875.23;625101;229;24820;-75
2021/03/27 06:10:45;;;;;;;2.67;1.17;;;;;;;7.00;86.46;100877.91;638126;224;24756;-75
2021/03/27 06:13:26;;;;;;;3.63;1.50;;;;;;;7.03;86.42;100880.28;639201;222;24964;-74
2021/03/27 06:16:30;;;;;;;4.70;0.90;;;;;;;7.15;84.89;100887.19;639423;224;27970;-75
2021/03/27 06:19:07;;;;;;;2.70;1.20;;;;;;;7.13;84.92;100882.59;625179;228;24843;-75
2021/03/27 06:21:40;;;;;;;2.70;1.00;;;;;;;7.06;83.70;100880.09;639824;224;24828;-75
2021/03/27 06:24:15;;;;;;;1.00;0.90;;;;;;;7.14;83.75;100884.72;639655;221;25846;-75
2021/03/27 06:27:05;;;;;;;1.80;1.10;;;;;;;7.14;83.13;100883.42;639558;224;24797;-74
2021/03/27 06:29:56;;;;;;;4.92;2.85;;;;;;;7.25;82.30;100881.39;632139;224;32745;-75
2021/03/27 06:32:32;;;;;;;5.47;1.27;;;;;;;7.26;82.18;100880.45;626145;229;23687;-75
2021/03/27 06:35:02;;;;;;;2.10;1.20;;;;;;;7.61;82.47;100888.33;626251;228;25861;-75
2021/03/27 06:37:40;;;;;;;2.13;1.10;;;;;;;7.45;80.77;100883.39;636340;225;25387;-74
2021/03/27 06:40:18;;;;;;;1.83;1.60;;;;;;;7.32;81.85;100900.27;628866;228;24872;-75
2021/03/27 06:42:58;;;;;;;3.10;1.17;;;;;;;7.47;81.99;100906.13;625866;226;24834;-75
2021/03/27 06:45:34;;;;;;;1.67;1.07;;;;;;;7.51;81.68;100911.91;627869;228;24867;-75
2021/03/27 06:48:35;;;;;;;4.20;1.20;;;;;;;7.44;81.70;100922.67;627075;229;24802;-75
2021/03/27 06:51:17;;;;;;;3.80;1.20;;;;;;;7.27;80.76;100917.86;624837;229;24877;-75
2021/03/27 06:53:57;;;;;;;5.80;1.10;;;;;;;7.32;79.69;100924.00;638983;222;25168;-74
2021/03/27 06:56:34;;;;;;;5.37;1.57;;;;;;;7.31;79.25;100918.47;640152;224;24837;-75
2021/03/27 06:59:08;;;;;;;4.43;2.97;;;;;;;7.18;78.08;100917.22;622084;229;25136;-74
2021/03/27 07:02:05;;;;;;;2.53;1.00;;;;;;;7.26;78.47;100919.26;634840;225;24905;-74
2021/03/27 07:04:57;;;;;;;3.40;1.23;;;;;;;7.26;76.52;100905.03;626947;224;24842;-74
2021/03/27 07:07:49;;;;;;;6.87;1.23;;;;;;;7.33;78.61;100923.92;636738;225;25495;-76
2021/03/27 07:10:46;;;;;;;3.20;1.10;;;;;;;7.42;77.88;100917.25;632403;225;32840;-75
2021/03/27 07:13:26;;;;;;;2.93;1.00;;;;;;;7.44;77.00;100917.50;634913;220;23717;-76
2021/03/27 07:16:03;;;;;;;6.97;1.20;;;;;;;7.48;76.63;100919.43;635389;225;24847;-74
2021/03/27 07:18:56;;;;;;;1.67;1.07;;;;;;;7.55;77.55;100918.05;639249;225;24770;-75
2021/03/27 07:21:39;;;;;;;2.17;1.00;;;;;;;7.51;76.39;100911.44;623809;228;25114;-75
2021/03/27 07:24:14;;;;;;;2.27;1.10;;;;;;;7.20;75.94;100911.94;637361;222;24814;-76
2021/03/27 07:26:59;;;;;;;5.08;0.90;;;;;;;7.24;76.20;100918.08;621407;229;33077;-75
2021/03/27 07:29:40;;;;;;;1.77;1.03;;;;;;;7.19;75.18;100910.28;626561;228;23705;-75
2021/03/27 07:32:30;;;;;;;1.80;0.90;;;;;;;7.30;73.97;100893.06;632359;225;24878;-76
2021/03/27 07:35:26;;;;;;;6.73;1.20;;;;;;;7.56;73.41;100902.88;627906;226;24834;-75
2021/03/27 07:38:12;;;;;;;3.80;0.83;;;;;;;7.90;72.94;100899.19;622329;228;24855;-75
2021/03/27 07:40:43;;;;;;;2.53;1.20;;;;;;;7.93;73.69;100907.55;626743;229;24801;-75
2021/03/27 07:43:30;;;;;;;2.23;1.10;;;;;;;8.21;72.63;100899.06;626363;225;24797;-75
2021/03/27 07:46:13;;;;;;;4.60;1.30;;;;;;;8.48;72.91;100906.12;635623;225;24858;-75
2021/03/27 07:48:51;;;;;;;1.50;1.20;;;;;;;8.44;71.13;100906.45;625296;229;24820;-75
2021/03/27 07:51:25;;;;;;;3.37;1.10;;;;;;;8.25;71.87;100913.44;625856;228;24809;-75
2021/03/27 07:54:04;;;;;;;1.67;0.90;;;;;;;8.48;72.25;100924.27;637241;224;24798;-75
2021/03/27 07:56:40;;;;;;;3.00;1.20;;;;;;;8.82;70.90;100917.36;636278;222;24752;-75
2021/03/27 07:59:25;;;;;;;2.57;1.30;;;;;;;8.77;70.27;100918.20;628465;228;24900;-75
2021/03/27 08:01:57;;;;;;;1.93;1.10;;;;;;;8.38;70.94;100921.99;619860;229;31319;-75
2021/03/27 08:04:48;;;;;;;9.50;1.50;;;;;;;8.43;69.28;100935.91;635958;225;24771;-75
2021/03/27 08:07:17;;;;;;;4.93;1.10;;;;;;;8.25;69.68;100925.92;635554;225;24772;-75
2021/03/27 08:10:03;;;;;;;6.67;1.63;;;;;;;8.14;68.70;100931.05;624597;228;26955;-75
2021/03/27 08:12:58;;;;;;;4.60;1.00;;;;;;;7.97;67.86;100927.58;621140;225;38756;-75
2021/03/27 08:15:34;;;;;;;3.30;1.10;;;;;;;8.24;67.33;100918.27;623311;227;32843;-76
2021/03/27 08:18:13;;;;;;;4.43;1.30;;;;;;;8.13;66.95;100929.41;624355;227;23681;-76
2021/03/27 08:20:46;;;;;;;8.23;1.60;;;;;;;8.35;66.89;100936.48;620708;229;24883;-76
2021/03/27 08:23:24;;;;;;;4.50;1.10;;;;;;;8.26;66.58;100932.76;620298;225;32780;-76
2021/03/27 08:25:59;;;;;;;5.20;0.90;;;;;;;8.28;66.55;100941.71;637842;225;23645;-76
2021/03/27 08:28:46;;;;;;;5.83;0.90;;;;;;;8.09;66.84;100937.05;634560;225;24827;-76
2021/03/27 08:31:25;;;;;;;2.60;1.30;;;;;;;8.07;66.74;100944.11;623016;229;25076;-75
2021/03/27 08:34:22;;;;;;;3.90;1.00;;;;;;;8.24;66.19;100938.52;626870;225;32535;-75
2021/03/27 08:37:03;;;;;;;3.77;0.90;;;;;;;8.31;66.09;100937.16;630054;224;32894;-76
2021/03/27 08:40:02;;;;;;;5.47;1.25;;;;;;;8.58;66.12;100956.33;629001;224;43314;-75
2021/03/27 08:42:57;;;;;;;4.23;1.30;;;;;;;8.23;64.92;100945.12;639646;221;23646;-75
2021/03/27 08:45:30;;;;;;;2.83;1.00;;;;;;;8.35;65.49;100958.98;613960;229;24829;-75
2021/03/27 08:48:15;;;;;;;3.17;1.20;;;;;;;8.36;64.59;100964.52;621504;228;32799;-76
2021/03/27 08:51:05;;;;;;;5.55;1.10;;;;;;;8.55;65.10;100967.40;620845;229;32687;-75
2021/03/27 08:53:37;;;;;;;5.00;1.00;;;;;;;8.59;65.39;100978.75;616753;225;33327;-75
2021/03/27 08:56:35;;;;;;;2.83;0.93;;;;;;;8.48;64.70;100967.52;626343;226;24834;-76
2021/03/27 08:59:14;;;;;;;2.73;1.03;;;;;;;8.59;64.50;100985.23;637562;225;24726;-75
2021/03/27 09:01:59;;;;;;;3.93;1.20;;;;;;;8.72;65.87;100992.91;626499;228;24794;-78
2021/03/27 09:04:35;;;;;;;3.33;1.17;;;;;;;8.86;65.36;100986.22;637049;225;24826;-75
2021/03/27 09:07:18;;;;;;;1.80;1.00;;;;;;;8.86;64.79;100978.44;627668;226;24823;-75
2021/03/27 09:09:56;;;;;;;2.57;1.20;;;;;;;8.76;64.39;100979.26;634478;225;24840;-75
2021/03/27 09:12:59;;;;;;;7.87;1.20;;;;;;;8.75;63.34;100977.14;626353;225;24830;-76
2021/03/27 09:15:37;;;;;;;4.40;1.50;;;;;;;9.02;63.66;100982.02;628462;228;24819;-75
2021/03/27 09:18:12;;;;;;;2.10;0.97;;;;;;;9.61;62.79;100979.66;625547;229;24886;-76
2021/03/27 09:21:04;;;;;;;3.00;1.00;;;;;;;9.51;63.14;100975.17;638330;224;25004;-76
2021/03/27 09:23:41;;;;;;;4.35;1.30;;;;;;;9.57;62.06;100979.08;625917;221;32965;-77
2021/03/27 09:26:37;;;;;;;4.00;1.23;;;;;;;9.81;62.77;100983.63;637702;223;23901;-75
2021/03/27 09:29:32;;;;;;;3.30;1.00;;;;;;;9.89;61.55;100987.41;633876;224;33250;-76
2021/03/27 09:32:05;;;;;;;4.60;1.43;;;;;;;10.05;60.35;100983.94;636765;224;24803;-75
2021/03/27 09:35:00;;;;;;;2.23;0.90;;;;;;;10.03;59.03;100986.66;624966;229;24831;-76
2021/03/27 09:37:33;;;;;;;4.23;1.07;;;;;;;10.11;60.98;101000.33;638851;223;24820;-75
2021/03/27 09:40:02;;;;;;;3.83;1.90;;;;;;;9.92;61.67;100994.48;640102;224;24816;-77
2021/03/27 09:42:40;;;;;;;1.97;1.03;;;;;;;9.80;61.16;101017.05;639967;221;24797;-76
2021/03/27 09:45:16;;;;;;;3.33;1.50;;;;;;;10.07;61.39;101002.83;640273;223;24770;-75
2021/03/27 09:48:05;;;;;;;1.40;1.10;;;;;;;9.90;58.32;100995.55;638513;223;24790;-75
2021/03/27 09:50:35;;;;;;;4.10;1.33;;;;;;;10.28;59.06;100992.05;641002;223;24776;-76
2021/03/27 09:53:04;;;;;;;3.20;1.17;;;;;;;10.21;58.98;100991.33;635446;220;24762;-75
2021/03/27 09:55:39;;;;;;;3.20;1.40;;;;;;;10.43;59.23;100993.06;639800;223;24812;-76
2021/03/27 09:58:13;;;;;;;5.13;1.30;;;;;;;10.04;59.48;100994.81;638514;224;25047;-76
2021/03/27 10:01:05;;;;;;;5.50;1.30;;;;;;;10.20;59.00;100994.41;639785;224;25089;-75
2021/03/27 10:03:37;;;;;;;2.95;1.05;;;;;;;10.05;57.52;100999.53;633647;221;32753;-75
2021/03/27 10:06:13;;;;;;;5.60;1.30;;;;;;;10.32;57.77;100989.55;639263;224;23680;-75
2021/03/27 10:08:41;;;;;;;5.53;2.10;;;;;;;10.06;57.08;100999.87;638210;224;24766;-76
2021/03/27 10:11:09;;;;;;;4.20;1.10;;;;;;;10.09;58.47;100993.13;640112;224;23827;-75
2021/03/27 10:13:52;;;;;;;3.90;1.10;;;;;;;10.60;57.34;100993.33;638932;220;26962;-75
2021/03/27 10:16:20;;;;;;;4.30;1.10;;;;;;;10.20;56.86;100994.88;640422;224;24767;-76
2021/03/27 10:18:50;;;;;;;5.03;1.30;;;;;;;11.20;56.57;101007.86;639810;224;30293;-75
2021/03/27 10:21:23;;;;;;;1.93;0.80;;;;;;;10.67;54.97;100994.45;639335;224;24831;-77
2021/03/27 10:23:53;;;;;;;4.00;1.07;;;;;;;10.55;56.32;100993.33;640599;221;24773;-75
2021/03/27 10:26:29;;;;;;;6.63;1.63;;;;;;;10.61;56.11;101008.45;639166;223;24765;-76
2021/03/27 10:28:57;;;;;;;2.63;1.10;;;;;;;10.45;57.24;101000.26;626445;229;26080;-75
2021/03/27 10:31:26;;;;;;;2.33;1.50;;;;;;;10.60;57.11;101007.63;636864;225;24747;-76
2021/03/27 10:33:58;;;;;;;4.73;1.17;;;;;;;10.81;55.74;101019.34;625580;225;25049;-76
2021/03/27 10:36:36;;;;;;;5.67;1.30;;;;;;;10.48;56.53;101006.50;638282;225;24786;-75
2021/03/27 10:39:46;;;;;;;3.80;1.00;;;;;;;10.35;56.01;100995.80;625064;229;25963;-76
2021/03/27 10:42:23;;;;;;;5.47;1.20;;;;;;;10.83;57.37;101008.80;634728;225;24735;-75
2021/03/27 10:44:55;;;;;;;1.67;1.00;;;;;;;11.29;55.98;101019.64;625078;229;24813;-77
2021/03/27 10:47:26;;;;;;;6.87;1.37;;;;;;;10.17;56.57;101024.55;625806;229;24875;-76
2021/03/27 10:49:54;;;;;;;3.27;1.03;;;;;;;11.12;56.40;101023.29;625961;229;24782;-77
2021/03/27 10:52:31;;;;;;;4.20;1.07;;;;;;;11.26;56.28;101018.59;632310;223;24891;-75
2021/03/27 10:55:24;;;;;;;5.58;1.15;;;;;;;11.56;56.97;101023.45;628179;226;33079;-76
2021/03/27 10:58:07;;;;;;;4.60;1.23;;;;;;;11.49;55.75;101030.13;629719;225;32814;-75
2021/03/27 11:00:36;;;;;;;3.87;1.10;;;;;;;11.08;56.20;101024.51;621561;228;24864;-75
2021/03/27 11:03:14;;;;;;;3.30;1.13;;;;;;;11.05;56.44;101036.01;627011;226;24789;-76
2021/03/27 11:05:59;;;;;;;3.70;1.30;;;;;;;10.60;56.80;101032.82;637550;224;24744;-76
2021/03/27 11:08:51;;;;;;;2.53;1.37;;;;;;;10.78;56.08;101026.58;627929;228;24834;-75
2021/03/27 11:11:31;;;;;;;5.40;1.30;;;;;;;10.77;56.14;101050.47;626813;229;24812;-75
2021/03/27 11:14:25;;;;;;;2.00;0.90;;;;;;;10.70;56.48;101034.55;624958;229;24825;-75
2021/03/27 11:17:23;;;;;;;5.40;1.30;;;;;;;10.86;57.19;101029.39;623722;229;26959;-75
2021/03/27 11:20:03;;;;;;;5.20;1.20;;;;;;;11.06;56.90;101026.42;636833;224;24782;-76
2021/03/27 11:22:37;;;;;;;6.10;1.10;;;;;;;11.58;56.39;101029.36;625895;229;24782;-76
2021/03/27 11:25:19;;;;;;;4.97;1.20;;;;;;;11.28;56.60;101024.50;620812;225;26915;-76
2021/03/27 11:27:55;;;;;;;6.00;1.00;;;;;;;12.32;55.42;101025.09;627690;226;24785;-76
2021/03/27 11:30:23;;;;;;;4.97;1.20;;;;;;;12.46;54.27;101021.59;627848;226;24785;-76
2021/03/27 11:32:51;;;;;;;3.10;1.10;;;;;;;11.62;54.91;101020.31;632121;225;24814;-75
2021/03/27 11:35:20;;;;;;;4.67;1.20;;;;;;;10.99;56.68;101026.12;626760;225;24200;-76
2021/03/27 11:37:52;;;;;;;5.50;1.30;;;;;;;11.03;57.08;101035.31;635109;225;24838;-75
2021/03/27 11:40:25;;;;;;;3.30;1.83;;;;;;;10.94;56.49;101046.00;632794;225;24839;-76
2021/03/27 11:43:00;;;;;;;4.70;1.67;;;;;;;11.26;56.85;101043.34;636123;221;24914;-75
2021/03/27 11:45:29;;;;;;;2.90;1.07;;;;;;;10.82;57.69;101050.91;637023;224;24816;-75
2021/03/27 11:47:59;;;;;;;6.10;1.50;;;;;;;10.90;58.02;101054.20;632031;224;32677;-76
2021/03/27 11:50:39;;;;;;;1.30;0.80;;;;;;;10.54;59.39;101086.15;624686;229;24802;-75
2021/03/27 11:53:10;;;;;;;4.67;1.00;;;;;;;10.32;60.83;101066.25;635440;221;23860;-77
2021/03/27 11:55:39;;;;;;;4.10;1.23;;;;;;;10.22;61.01;101078.80;635515;225;24919;-77
2021/03/27 11:58:07;;;;;;;3.50;1.03;;;;;;;10.07;60.65;101090.72;637467;224;24802;-77
2021/03/27 12:03:18;;;;;;;6.62;1.50;;;;;;;10.46;61.39;101122.36;626084;226;32846;-75
2021/03/27 12:05:50;;;;;;;4.70;1.77;;;;;;;9.07;72.88;101169.79;629576;225;28051;-75
2021/03/27 12:08:20;;;;;;;7.27;1.30;;;;;;;8.77;79.90;101218.22;629068;225;26990;-75
2021/03/27 12:11:00;;;;;;;6.13;1.30;;;;;;;8.31;81.86;101239.55;636113;223;24827;-76